Vremea acum in Aiud - Romania

Vrei sa afli care e starea vremii acum in Alba - Romania? Dorim sa iti furnizam starea vremii pentru Alba - Romania. Starea vremii Alba - Romania pentru astazi.

Vremea acum in Aiud

Temperatura: 19 °C

Se simte ca: 19 °C
Innorat: 0 %
Precipitatii: 0 %
Presiune atmosferica: 1023 hPa
Umiditate: 37%
Vizibilitate: 10 km
Vantul bate din E cu 6.1 km/h

Evolutia vremii in Aiud pe ore

Ora: 13:00
Parțial noros
Temperatura: 20.6°C
Sansa de precipitatii: 0%
Ora Descriere Temp Se simte Precipitatii Umiditate Vant
00:00Parțial noros12.1°12.1°0%41%SW 0.7 KM/H
01:00Parțial noros11.5°11.5°0%42%SE 1.1 KM/H
02:00Parțial noros10.8°10.8°0%44%NE 1.1 KM/H
03:00Parțial noros10.5°10.5°0%46%NE 1.4 KM/H
04:00Parțial noros10.2°10.2°0%47%NE 1.8 KM/H
05:00Parțial noros9.9°9.9°0%49%NE 2.2 KM/H
06:00Parțial noros10.4°10.4°0%49%NE 2.5 KM/H
07:00Parțial noros11°11°0%49%NE 2.5 KM/H
08:00Parțial noros11.5°11.5°0%49%NE 2.9 KM/H
09:00Parțial noros13.7°13.7°0%44%ENE 4 KM/H
10:00Parțial noros15.9°15.9°0%39%ENE 5 KM/H
11:00Parțial noros18.1°18.1°0%34%ENE 6.1 KM/H
12:00Parțial noros19.4°19.4°0%32%ENE 6.8 KM/H
13:00Parțial noros20.6°20.6°0%31%ENE 7.2 KM/H
14:00Parțial noros21.9°21.9°0%29%ENE 7.9 KM/H
15:00Parțial noros21.1°21.1°0%33%NE 6.8 KM/H
16:00Parțial noros20.2°20.2°0%37%NNE 5.8 KM/H
17:00Parțial noros19.4°19.4°0%41%N 4.7 KM/H
18:00Parțial noros17.9°17.9°0%45%ESE 4 KM/H
19:00Parțial noros16.5°16.5°0%49%SSW 2.9 KM/H
20:00Parțial noros15°15°0%53%WNW 2.2 KM/H
21:00Parțial noros14.4°14.4°0%55%SSW 1.8 KM/H
22:00Parțial noros13.7°13.7°0%58%SE 1.8 KM/H
23:00Parțial noros13.1°13.1°0%61%NE 1.4 KM/H